createdAt,value
2023-04-15T00:01:53.640Z,9.40
2023-04-15T00:04:20.966Z,9.40
2023-04-15T00:06:55.121Z,9.30
2023-04-15T00:09:22.298Z,9.30
2023-04-15T00:11:51.284Z,9.30
2023-04-15T00:14:18.274Z,9.20
2023-04-15T00:16:45.384Z,9.20
2023-04-15T00:19:13.373Z,9.20
2023-04-15T00:21:41.389Z,9.10
2023-04-15T00:24:08.428Z,9.10
2023-04-15T00:26:35.759Z,9.10
2023-04-15T00:29:02.830Z,9.10
2023-04-15T00:31:31.606Z,9.10
2023-04-15T00:33:58.636Z,9.10
2023-04-15T00:36:26.378Z,9.10
2023-04-15T00:38:54.609Z,9.10
2023-04-15T00:41:23.057Z,9.10
2023-04-15T00:43:50.216Z,9.20
2023-04-15T00:46:20.753Z,9.10
2023-04-15T00:48:48.169Z,9.20
2023-04-15T00:51:15.107Z,9.20
2023-04-15T00:53:42.103Z,9.20
2023-04-15T00:56:09.222Z,9.20
2023-04-15T00:58:37.149Z,9.20
2023-04-15T01:01:04.806Z,9.20
2023-04-15T01:03:31.995Z,9.20
2023-04-15T01:06:03.428Z,9.20
2023-04-15T01:08:31.771Z,9.20
2023-04-15T01:11:03.856Z,9.20
2023-04-15T01:13:32.307Z,9.20
2023-04-15T01:15:59.349Z,9.20
2023-04-15T01:18:27.303Z,9.20
2023-04-15T01:20:54.572Z,9.20
2023-04-15T01:23:23.249Z,9.20
2023-04-15T01:25:51.626Z,9.10
2023-04-15T01:28:18.511Z,9.10
2023-04-15T01:30:45.629Z,9.10
2023-04-15T01:33:12.565Z,9.10
2023-04-15T01:35:39.783Z,9.10
2023-04-15T01:38:09.003Z,9.10
2023-04-15T01:40:36.139Z,9.10
2023-04-15T01:43:03.927Z,9.10
2023-04-15T01:45:31.099Z,9.10
2023-04-15T01:47:58.152Z,9.10
2023-04-15T01:50:26.113Z,9.10
2023-04-15T01:52:53.318Z,9.20
2023-04-15T01:55:20.342Z,9.10
2023-04-15T01:57:47.352Z,9.10
2023-04-15T02:00:14.752Z,9.10
2023-04-15T02:02:42.000Z,9.10
2023-04-15T02:05:09.625Z,9.10
2023-04-15T02:07:37.206Z,9.10
2023-04-15T02:10:04.721Z,9.10
2023-04-15T02:12:31.662Z,9.10
2023-04-15T02:14:58.597Z,9.10
2023-04-15T02:17:25.652Z,9.10
2023-04-15T02:19:52.627Z,9.10
2023-04-15T02:22:19.518Z,9.00
2023-04-15T02:24:47.066Z,9.00
2023-04-15T02:27:18.327Z,9.00
2023-04-15T02:29:46.075Z,9.00
2023-04-15T02:32:13.902Z,9.00
2023-04-15T02:34:42.723Z,9.00
2023-04-15T02:37:11.359Z,8.90
2023-04-15T02:39:38.390Z,8.90
2023-04-15T02:42:06.381Z,8.90
2023-04-15T02:44:35.228Z,8.90
2023-04-15T02:47:02.147Z,8.90
2023-04-15T02:49:30.919Z,8.90
2023-04-15T02:52:00.072Z,8.80
2023-04-15T02:54:28.886Z,8.80
2023-04-15T02:56:56.640Z,8.90
2023-04-15T02:59:23.627Z,8.80
2023-04-15T03:01:50.688Z,8.80
2023-04-15T03:04:17.828Z,8.80
2023-04-15T03:06:44.888Z,8.90
2023-04-15T03:09:12.897Z,8.90
2023-04-15T03:11:41.598Z,8.80
2023-04-15T03:14:08.592Z,8.90
2023-04-15T03:16:35.960Z,8.80
2023-04-15T03:19:03.195Z,8.80
2023-04-15T03:21:30.861Z,8.80
2023-04-15T03:23:57.948Z,8.80
2023-04-15T03:26:29.659Z,8.80
2023-04-15T03:28:57.297Z,8.80
2023-04-15T03:31:24.670Z,8.80
2023-04-15T03:33:51.720Z,8.80
2023-04-15T03:36:18.674Z,8.80
2023-04-15T03:38:45.834Z,8.80
2023-04-15T03:41:13.135Z,8.70
2023-04-15T03:43:40.047Z,8.70
2023-04-15T03:46:07.252Z,8.70
2023-04-15T03:48:34.198Z,8.70
2023-04-15T03:51:01.380Z,8.70
2023-04-15T03:53:29.503Z,8.70
2023-04-15T03:55:56.842Z,8.70
2023-04-15T03:58:25.897Z,8.70
2023-04-15T04:00:52.849Z,8.70
2023-04-15T04:03:20.102Z,8.70
2023-04-15T04:05:47.284Z,8.60
2023-04-15T04:08:15.155Z,8.60
2023-04-15T04:10:42.590Z,8.60
2023-04-15T04:13:09.512Z,8.60
2023-04-15T04:15:36.702Z,8.60
2023-04-15T04:18:03.834Z,8.60
2023-04-15T04:20:32.139Z,8.60
2023-04-15T04:22:59.269Z,8.60
2023-04-15T04:25:26.192Z,8.60
2023-04-15T04:27:53.204Z,8.60
2023-04-15T04:30:20.315Z,8.70
2023-04-15T04:32:49.995Z,8.60
2023-04-15T04:35:17.477Z,8.60
2023-04-15T04:37:44.416Z,8.60
2023-04-15T04:40:12.176Z,8.70
2023-04-15T04:42:40.153Z,8.60
2023-04-15T04:45:07.898Z,8.70
2023-04-15T04:47:34.796Z,8.70
2023-04-15T04:50:03.551Z,8.70
2023-04-15T04:52:30.680Z,8.70
2023-04-15T04:54:57.590Z,8.70
2023-04-15T04:57:24.517Z,8.70
2023-04-15T04:59:51.659Z,8.70
2023-04-15T05:02:18.725Z,8.70
2023-04-15T05:04:45.938Z,8.70
2023-04-15T05:07:12.877Z,8.70
2023-04-15T05:09:39.799Z,8.70
2023-04-15T05:12:08.962Z,8.80
2023-04-15T05:14:35.966Z,8.80
2023-04-15T05:17:03.468Z,8.80
2023-04-15T05:19:30.897Z,8.80
2023-04-15T05:21:57.992Z,8.80
2023-04-15T05:24:25.409Z,8.80
2023-04-15T05:26:52.312Z,8.80
2023-04-15T05:29:19.302Z,8.80
2023-04-15T05:31:46.628Z,8.80
2023-04-15T05:34:15.835Z,8.80
2023-04-15T05:36:42.873Z,8.80
2023-04-15T05:39:09.776Z,8.90
2023-04-15T05:41:36.790Z,8.90
2023-04-15T05:44:03.874Z,9.00
2023-04-15T05:46:30.873Z,9.00
2023-04-15T05:48:57.850Z,9.00
2023-04-15T05:51:24.861Z,9.00
2023-04-15T05:53:51.867Z,9.00
2023-04-15T05:56:20.334Z,9.00
2023-04-15T05:58:47.330Z,9.00
2023-04-15T06:01:14.364Z,9.00
2023-04-15T06:03:43.716Z,9.00
2023-04-15T06:06:10.929Z,9.00
2023-04-15T06:08:38.348Z,9.00
2023-04-15T06:11:05.956Z,9.00
2023-04-15T06:13:32.963Z,9.00
2023-04-15T06:16:00.089Z,9.10
2023-04-15T06:18:27.039Z,9.10
2023-04-15T06:20:53.997Z,9.10
2023-04-15T06:23:21.224Z,9.00
2023-04-15T06:25:48.335Z,9.10
2023-04-15T06:28:15.355Z,9.10
2023-04-15T06:30:42.334Z,9.10
2023-04-15T06:33:10.579Z,9.20
2023-04-15T06:35:37.688Z,9.20
2023-04-15T06:38:04.717Z,9.30
2023-04-15T06:40:32.289Z,9.30
2023-04-15T06:42:59.216Z,9.40
2023-04-15T06:45:26.647Z,9.50
2023-04-15T06:47:53.712Z,9.60
2023-04-15T06:50:20.691Z,9.60
2023-04-15T06:52:47.687Z,9.60
2023-04-15T06:55:14.973Z,9.60
2023-04-15T06:57:41.940Z,9.70
2023-04-15T07:00:12.068Z,9.80
2023-04-15T07:02:39.332Z,10.00
2023-04-15T07:05:08.464Z,10.30
2023-04-15T07:07:36.176Z,11.20
2023-04-15T07:10:03.450Z,12.30
2023-04-15T07:12:30.625Z,12.80
2023-04-15T07:14:57.720Z,12.80
2023-04-15T07:17:24.804Z,12.60
2023-04-15T07:19:51.786Z,12.20
2023-04-15T07:22:18.705Z,12.00
2023-04-15T07:24:46.796Z,11.70
2023-04-15T07:27:13.750Z,11.40
2023-04-15T07:29:41.390Z,11.20
2023-04-15T07:32:08.382Z,11.10
2023-04-15T07:34:35.354Z,11.10
2023-04-15T07:37:02.334Z,11.10
2023-04-15T07:39:29.951Z,11.10
2023-04-15T07:41:57.256Z,11.00
2023-04-15T07:44:25.312Z,10.80
2023-04-15T07:46:53.327Z,10.90
2023-04-15T07:49:21.714Z,10.90
2023-04-15T07:51:49.307Z,11.00
2023-04-15T07:54:16.534Z,11.00
2023-04-15T07:56:44.642Z,11.10
2023-04-15T07:59:11.703Z,11.10
2023-04-15T08:01:39.091Z,11.20
2023-04-15T08:04:06.347Z,11.30
2023-04-15T08:06:33.424Z,11.30
2023-04-15T08:09:01.023Z,11.40
2023-04-15T08:11:28.326Z,11.50
2023-04-15T08:13:57.565Z,11.70
2023-04-15T08:16:30.144Z,11.90
2023-04-15T08:18:57.866Z,12.10
2023-04-15T08:21:27.827Z,12.30
2023-04-15T08:24:00.345Z,12.50
2023-04-15T08:26:27.250Z,12.60
2023-04-15T08:28:57.581Z,12.70
2023-04-15T08:31:26.942Z,12.80
2023-04-15T08:33:54.901Z,12.90
2023-04-15T08:36:22.068Z,13.10
2023-04-15T08:38:49.005Z,13.30
2023-04-15T08:41:25.322Z,13.50
2023-04-15T08:44:04.352Z,13.80
2023-04-15T08:46:37.864Z,14.00
2023-04-15T08:49:05.877Z,14.20
2023-04-15T08:51:34.188Z,14.20
2023-04-15T08:54:02.569Z,14.30
2023-04-15T08:56:34.828Z,14.30
2023-04-15T08:59:02.468Z,14.50
2023-04-15T09:01:30.184Z,14.70
2023-04-15T09:03:59.395Z,14.70
2023-04-15T09:06:27.115Z,14.90
2023-04-15T09:08:54.193Z,15.20
2023-04-15T09:11:22.596Z,15.20
2023-04-15T09:13:50.053Z,15.20
2023-04-15T09:16:17.409Z,15.40
2023-04-15T09:18:44.607Z,15.60
2023-04-15T09:21:17.425Z,15.50
2023-04-15T09:24:02.437Z,15.50
2023-04-15T09:26:40.225Z,15.60
2023-04-15T09:29:16.089Z,15.70
2023-04-15T09:31:43.566Z,15.90
2023-04-15T09:34:10.747Z,16.10
2023-04-15T09:36:54.448Z,16.10
2023-04-15T09:39:21.628Z,16.30
2023-04-15T09:42:24.464Z,16.30
2023-04-15T09:44:53.166Z,16.50
2023-04-15T09:47:31.838Z,16.60
2023-04-15T09:50:00.528Z,16.60
2023-04-15T09:52:29.396Z,16.60
2023-04-15T09:54:59.352Z,16.50
2023-04-15T09:57:34.551Z,16.50
2023-04-15T10:00:01.702Z,16.60
2023-04-15T10:02:30.600Z,16.70
2023-04-15T10:04:57.992Z,16.60
2023-04-15T10:07:28.414Z,16.70
2023-04-15T10:09:55.943Z,16.80
2023-04-15T10:12:23.581Z,17.00
2023-04-15T10:14:59.880Z,17.10
2023-04-15T10:17:37.248Z,17.20
2023-04-15T10:20:06.387Z,17.30
2023-04-15T10:22:33.435Z,17.30
2023-04-15T10:25:01.221Z,17.40
2023-04-15T10:27:29.142Z,17.30
2023-04-15T10:29:57.486Z,17.30
2023-04-15T10:32:26.617Z,17.30
2023-04-15T10:34:55.034Z,17.20
2023-04-15T10:37:33.735Z,17.40
2023-04-15T10:40:00.683Z,17.40
2023-04-15T10:42:35.466Z,17.60
2023-04-15T10:45:02.460Z,17.70
2023-04-15T10:47:29.477Z,17.80
2023-04-15T10:50:02.394Z,17.90
2023-04-15T10:52:30.060Z,18.10
2023-04-15T10:55:16.617Z,18.20
2023-04-15T10:57:44.526Z,18.40
2023-04-15T11:00:19.350Z,18.60
2023-04-15T11:02:54.374Z,18.70
2023-04-15T11:05:43.804Z,18.80
2023-04-15T11:08:12.423Z,18.60
2023-04-15T11:10:39.330Z,18.50
2023-04-15T11:13:24.253Z,18.60
2023-04-15T11:15:52.102Z,18.80
2023-04-15T11:18:26.820Z,18.80
2023-04-15T11:20:59.595Z,18.70
2023-04-15T11:23:47.077Z,18.70
2023-04-15T11:26:14.937Z,18.70
2023-04-15T11:28:47.627Z,18.60
2023-04-15T11:31:17.741Z,18.80
2023-04-15T11:33:58.200Z,19.10
2023-04-15T11:36:31.818Z,19.30
2023-04-15T11:38:59.962Z,19.60
2023-04-15T11:41:26.948Z,20.00
2023-04-15T11:43:53.980Z,20.30
2023-04-15T11:46:23.061Z,20.30
2023-04-15T11:48:50.342Z,19.60
2023-04-15T11:51:17.584Z,18.90
2023-04-15T11:53:52.015Z,18.40
2023-04-15T11:56:22.129Z,18.40
2023-04-15T11:58:52.806Z,18.30
2023-04-15T12:01:19.881Z,17.90
2023-04-15T12:03:49.461Z,17.80
2023-04-15T12:06:24.795Z,17.90
2023-04-15T12:09:01.827Z,18.40
2023-04-15T12:11:33.696Z,18.70
2023-04-15T12:14:25.217Z,19.10
2023-04-15T12:17:02.150Z,19.30
2023-04-15T12:19:42.052Z,19.20
2023-04-15T12:22:14.132Z,18.70
2023-04-15T12:24:48.705Z,18.40
2023-04-15T12:27:17.078Z,18.50
2023-04-15T12:29:44.211Z,18.60
2023-04-15T12:32:20.893Z,18.90
2023-04-15T12:34:54.322Z,19.20
2023-04-15T12:37:21.605Z,19.20
2023-04-15T12:39:50.087Z,19.40
2023-04-15T12:42:18.100Z,19.60
2023-04-15T12:44:45.390Z,19.60
2023-04-15T12:47:13.098Z,19.40
2023-04-15T12:49:40.153Z,19.20
2023-04-15T12:52:07.311Z,19.00
2023-04-15T12:54:34.798Z,19.00
2023-04-15T12:57:04.662Z,19.20
2023-04-15T12:59:33.708Z,19.20
2023-04-15T13:02:01.254Z,19.40
2023-04-15T13:04:30.955Z,19.60
2023-04-15T13:06:58.358Z,19.80
2023-04-15T13:09:26.004Z,19.70
2023-04-15T13:11:54.309Z,19.70
2023-04-15T13:14:21.414Z,19.60
2023-04-15T13:16:48.444Z,19.40
2023-04-15T13:19:15.828Z,19.40
2023-04-15T13:21:42.771Z,19.50
2023-04-15T13:24:09.944Z,19.30
2023-04-15T13:26:37.787Z,19.20
2023-04-15T13:29:04.769Z,19.30
2023-04-15T13:31:31.880Z,19.30
2023-04-15T13:33:58.975Z,19.30
2023-04-15T13:36:26.749Z,19.40
2023-04-15T13:38:53.756Z,19.10
2023-04-15T13:41:21.229Z,18.80
2023-04-15T13:43:48.202Z,18.70
2023-04-15T13:46:15.569Z,18.60
2023-04-15T13:48:42.661Z,18.50
2023-04-15T13:51:09.655Z,18.70
2023-04-15T13:53:38.859Z,18.70
2023-04-15T13:56:07.927Z,18.70
2023-04-15T13:58:34.906Z,18.60
2023-04-15T14:01:04.656Z,18.60
2023-04-15T14:03:33.360Z,18.50
2023-04-15T14:06:00.580Z,18.50
2023-04-15T14:08:27.528Z,18.20
2023-04-15T14:10:54.434Z,18.00
2023-04-15T14:13:21.371Z,18.00
2023-04-15T14:15:48.382Z,17.80
2023-04-15T14:18:15.350Z,17.60
2023-04-15T14:20:45.030Z,17.60
2023-04-15T14:23:11.996Z,17.30
2023-04-15T14:25:41.673Z,16.90
2023-04-15T14:28:08.606Z,16.80
2023-04-15T14:30:35.950Z,16.80
2023-04-15T14:33:03.372Z,16.80
2023-04-15T14:35:31.078Z,17.00
2023-04-15T14:37:57.993Z,17.10
2023-04-15T14:40:24.960Z,17.00
2023-04-15T14:42:51.992Z,16.90
2023-04-15T14:45:19.018Z,16.80
2023-04-15T14:47:47.011Z,16.70
2023-04-15T14:50:14.042Z,16.60
2023-04-15T14:52:40.966Z,16.40
2023-04-15T14:55:10.422Z,16.30
2023-04-15T14:57:42.168Z,16.10
2023-04-15T15:00:12.702Z,16.00
2023-04-15T15:02:42.591Z,16.10
2023-04-15T15:05:10.980Z,16.10
2023-04-15T15:07:40.704Z,16.10
2023-04-15T15:10:08.227Z,16.10
2023-04-15T15:12:35.243Z,16.00
2023-04-15T15:15:12.397Z,16.00
2023-04-15T15:17:46.953Z,16.10
2023-04-15T15:20:14.232Z,16.00
2023-04-15T15:22:41.148Z,15.90
2023-04-15T15:25:08.162Z,15.90
2023-04-15T15:27:37.689Z,15.70
2023-04-15T15:30:06.830Z,15.70
2023-04-15T15:32:33.900Z,15.70
2023-04-15T15:35:00.974Z,15.60
2023-04-15T15:37:27.852Z,15.70
2023-04-15T15:39:54.805Z,15.50
2023-04-15T15:42:23.538Z,15.50
2023-04-15T15:44:52.821Z,15.40
2023-04-15T15:47:21.938Z,15.40
2023-04-15T15:49:49.002Z,15.30
2023-04-15T15:52:15.957Z,15.30
2023-04-15T15:54:43.155Z,15.20
2023-04-15T15:57:10.666Z,15.10
2023-04-15T15:59:43.583Z,14.90
2023-04-15T16:02:12.438Z,14.80
2023-04-15T16:04:40.063Z,14.70
2023-04-15T16:07:07.450Z,14.60
2023-04-15T16:09:34.557Z,14.60
2023-04-15T16:12:02.061Z,14.60
2023-04-15T16:14:28.991Z,14.50
2023-04-15T16:16:56.247Z,14.60
2023-04-15T16:19:23.273Z,14.50
2023-04-15T16:21:50.809Z,14.50
2023-04-15T16:24:17.747Z,14.40
2023-04-15T16:26:44.839Z,14.30
2023-04-15T16:29:11.759Z,14.20
2023-04-15T16:31:41.459Z,14.20
2023-04-15T16:34:09.127Z,14.10
2023-04-15T16:36:36.268Z,14.00
2023-04-15T16:39:03.482Z,13.90
2023-04-15T16:41:32.573Z,13.80
2023-04-15T16:44:01.967Z,13.80
2023-04-15T16:46:29.779Z,13.70
2023-04-15T16:48:57.003Z,13.70
2023-04-15T16:51:23.959Z,13.60
2023-04-15T16:53:51.067Z,13.60
2023-04-15T16:56:18.037Z,13.60
2023-04-15T16:58:44.934Z,13.70
2023-04-15T17:01:12.140Z,13.70
2023-04-15T17:03:40.027Z,13.60
2023-04-15T17:06:07.075Z,13.50
2023-04-15T17:08:34.018Z,13.30
2023-04-15T17:11:01.075Z,13.20
2023-04-15T17:13:28.004Z,13.10
2023-04-15T17:15:55.904Z,12.90
2023-04-15T17:18:23.034Z,12.80
2023-04-15T17:20:50.078Z,12.80
2023-04-15T17:23:17.146Z,12.70
2023-04-15T17:25:44.091Z,12.60
2023-04-15T17:28:11.139Z,12.50
2023-04-15T17:30:38.059Z,12.50
2023-04-15T17:33:56.386Z,12.40
2023-04-15T17:35:53.557Z,12.50
2023-04-15T17:38:20.502Z,12.40
2023-04-15T17:40:47.460Z,12.30
2023-04-15T17:43:14.525Z,12.30
2023-04-15T17:45:41.470Z,12.20
2023-04-15T17:48:08.490Z,12.20
2023-04-15T17:50:35.778Z,12.20
2023-04-15T17:53:02.869Z,12.10
2023-04-15T17:55:29.845Z,12.10
2023-04-15T17:57:56.845Z,12.00
2023-04-15T18:00:23.997Z,12.00
2023-04-15T18:02:51.075Z,12.00
2023-04-15T18:05:19.847Z,11.90
2023-04-15T18:07:46.851Z,11.80
2023-04-15T18:10:13.727Z,11.70
2023-04-15T18:12:40.752Z,11.60
2023-04-15T18:15:11.020Z,11.40
2023-04-15T18:17:38.071Z,11.40
2023-04-15T18:20:05.651Z,11.30
2023-04-15T18:22:32.568Z,11.30
2023-04-15T18:25:04.171Z,11.20
2023-04-15T18:27:33.448Z,11.10
2023-04-15T18:30:00.533Z,11.10
2023-04-15T18:32:31.634Z,11.00
2023-04-15T18:34:58.866Z,11.00
2023-04-15T18:37:29.361Z,10.90
2023-04-15T18:39:56.763Z,10.90
2023-04-15T18:42:24.838Z,10.80
2023-04-15T18:44:53.266Z,10.70
2023-04-15T18:47:20.449Z,10.60
2023-04-15T18:49:47.457Z,10.60
2023-04-15T18:52:14.385Z,10.50
2023-04-15T18:54:41.314Z,10.40
2023-04-15T18:57:08.460Z,10.30
2023-04-15T18:59:35.770Z,10.20
2023-04-15T19:02:06.311Z,10.20
2023-04-15T19:04:33.452Z,10.10
2023-04-15T19:07:01.656Z,10.00
2023-04-15T19:09:31.814Z,9.90
2023-04-15T19:11:58.758Z,9.90
2023-04-15T19:14:25.927Z,9.90
2023-04-15T19:16:52.996Z,9.80
2023-04-15T19:19:20.053Z,9.70
2023-04-15T19:21:49.848Z,9.70
2023-04-15T19:24:18.186Z,9.60
2023-04-15T19:26:50.246Z,9.50
2023-04-15T19:29:17.631Z,9.40
2023-04-15T19:31:44.867Z,9.30
2023-04-15T19:34:11.832Z,9.20
2023-04-15T19:36:38.742Z,9.20
2023-04-15T19:39:06.326Z,9.20
2023-04-15T19:41:33.441Z,9.20
2023-04-15T19:44:00.759Z,9.10
2023-04-15T19:46:30.110Z,9.10
2023-04-15T19:48:57.257Z,9.00
2023-04-15T19:51:28.491Z,9.00
2023-04-15T19:53:56.874Z,9.00
2023-04-15T19:56:24.342Z,8.90
2023-04-15T19:58:53.110Z,8.80
2023-04-15T20:01:21.411Z,8.80
2023-04-15T20:03:48.896Z,8.70
2023-04-15T20:06:16.108Z,8.70
2023-04-15T20:08:43.215Z,8.60
2023-04-15T20:11:11.083Z,8.50
2023-04-15T20:13:42.144Z,8.50
2023-04-15T20:16:09.323Z,8.40
2023-04-15T20:18:36.361Z,8.40
2023-04-15T20:21:03.418Z,8.40
2023-04-15T20:23:30.427Z,8.30
2023-04-15T20:25:57.436Z,8.30
2023-04-15T20:28:27.397Z,8.30
2023-04-15T20:30:54.380Z,8.20
2023-04-15T20:33:22.340Z,8.20
2023-04-15T20:35:49.318Z,8.10
2023-04-15T20:38:16.469Z,8.10
2023-04-15T20:40:43.773Z,8.10
2023-04-15T20:43:10.813Z,8.00
2023-04-15T20:45:38.745Z,8.00
2023-04-15T20:48:06.135Z,7.90
2023-04-15T20:50:33.124Z,7.90
2023-04-15T20:53:00.300Z,7.80
2023-04-15T20:55:28.374Z,7.80
2023-04-15T20:57:58.289Z,7.70
2023-04-15T21:00:25.502Z,7.70
2023-04-15T21:02:52.686Z,7.70
2023-04-15T21:05:19.844Z,7.80
2023-04-15T21:07:46.795Z,7.80
2023-04-15T21:10:13.737Z,7.80
2023-04-15T21:12:42.523Z,7.80
2023-04-15T21:15:10.163Z,7.90
2023-04-15T21:17:37.221Z,7.90
2023-04-15T21:20:04.642Z,7.90
2023-04-15T21:22:31.554Z,7.90
2023-04-15T21:24:58.573Z,7.90
2023-04-15T21:27:26.225Z,7.80
2023-04-15T21:29:53.280Z,7.80
2023-04-15T21:32:20.404Z,7.70
2023-04-15T21:34:47.577Z,7.70
2023-04-15T21:37:14.474Z,7.60
2023-04-15T21:39:41.934Z,7.60
2023-04-15T21:42:08.953Z,7.50
2023-04-15T21:44:36.124Z,7.40
2023-04-15T21:47:03.138Z,7.40
2023-04-15T21:49:31.022Z,7.30
2023-04-15T21:52:01.334Z,7.40
2023-04-15T21:54:28.863Z,7.40
2023-04-15T21:56:57.742Z,7.40
2023-04-15T21:59:24.651Z,7.50
2023-04-15T22:01:51.934Z,7.50
2023-04-15T22:04:19.141Z,7.40
2023-04-15T22:06:46.915Z,7.40
2023-04-15T22:09:14.486Z,7.30
2023-04-15T22:11:41.557Z,7.30
2023-04-15T22:14:09.100Z,7.20
2023-04-15T22:16:36.160Z,7.10
2023-04-15T22:19:03.167Z,7.00
2023-04-15T22:21:30.125Z,7.00
2023-04-15T22:24:38.738Z,6.90
2023-04-15T22:26:44.309Z,6.90
2023-04-15T22:29:11.292Z,6.80
2023-04-15T22:31:38.242Z,6.80
2023-04-15T22:34:05.264Z,6.80
2023-04-15T22:36:32.356Z,6.80
2023-04-15T22:38:59.250Z,6.70
2023-04-15T22:41:26.353Z,6.70
2023-04-15T22:43:53.421Z,6.70
2023-04-15T22:46:20.453Z,6.70
2023-04-15T22:48:47.410Z,6.60
2023-04-15T22:51:22.770Z,6.60
2023-04-15T22:53:50.607Z,6.60
2023-04-15T22:56:21.912Z,6.50
2023-04-15T22:58:50.003Z,6.50
2023-04-15T23:01:17.844Z,6.50
2023-04-15T23:03:56.938Z,6.50
2023-04-15T23:06:31.172Z,6.40
2023-04-15T23:08:58.122Z,6.40
2023-04-15T23:11:25.076Z,6.50
2023-04-15T23:13:53.023Z,6.50
2023-04-15T23:16:27.844Z,6.50
2023-04-15T23:18:54.985Z,6.60
2023-04-15T23:21:25.493Z,6.70
2023-04-15T23:23:53.482Z,6.80
2023-04-15T23:26:20.405Z,6.80
2023-04-15T23:28:47.307Z,6.90
2023-04-15T23:31:14.427Z,6.90
2023-04-15T23:33:41.382Z,7.00
2023-04-15T23:36:08.429Z,7.00
2023-04-15T23:38:58.623Z,7.10
2023-04-15T23:41:25.561Z,7.20
2023-04-15T23:43:52.479Z,7.20
2023-04-15T23:46:19.694Z,7.30
2023-04-15T23:48:53.502Z,7.30
2023-04-15T23:51:22.560Z,7.30
2023-04-15T23:53:50.030Z,7.40
2023-04-15T23:56:17.047Z,7.50
2023-04-15T23:58:44.023Z,7.50
